createdAt,value
2023-04-06T00:02:02.937Z,101688.44
2023-04-06T00:04:31.980Z,101686.72
2023-04-06T00:06:59.925Z,101679.06
2023-04-06T00:09:27.954Z,101685.03
2023-04-06T00:11:55.975Z,101674.66
2023-04-06T00:14:23.631Z,101674.66
2023-04-06T00:16:51.650Z,101685.41
2023-04-06T00:19:19.374Z,101681.03
2023-04-06T00:21:48.443Z,101681.19
2023-04-06T00:24:16.256Z,101671.75
2023-04-06T00:26:43.974Z,101667.50
2023-04-06T00:29:11.686Z,101667.75
2023-04-06T00:31:39.424Z,101651.47
2023-04-06T00:34:07.758Z,101659.34
2023-04-06T00:36:35.459Z,101661.97
2023-04-06T00:39:04.633Z,101657.66
2023-04-06T00:41:32.437Z,101654.09
2023-04-06T00:44:00.223Z,101647.13
2023-04-06T00:46:28.137Z,101645.47
2023-04-06T00:48:56.065Z,101651.56
2023-04-06T00:51:24.741Z,101657.81
2023-04-06T00:53:52.718Z,101638.69
2023-04-06T00:56:22.195Z,101644.91
2023-04-06T00:58:49.980Z,101644.19
2023-04-06T01:01:17.823Z,101639.09
2023-04-06T01:03:48.557Z,101631.28
2023-04-06T01:06:16.255Z,101631.44
2023-04-06T01:08:43.983Z,101628.81
2023-04-06T01:11:11.688Z,101626.28
2023-04-06T01:13:40.745Z,101614.94
2023-04-06T01:16:09.038Z,101613.16
2023-04-06T01:18:37.090Z,101610.66
2023-04-06T01:21:04.839Z,101613.53
2023-04-06T01:23:33.921Z,101610.25
2023-04-06T01:26:01.530Z,101615.69
2023-04-06T01:28:29.217Z,101608.91
2023-04-06T01:30:56.939Z,101602.88
2023-04-06T01:33:24.667Z,101608.03
2023-04-06T01:35:52.350Z,101601.22
2023-04-06T01:38:20.153Z,101611.84
2023-04-06T01:40:49.270Z,101597.13
2023-04-06T01:43:16.964Z,101605.88
2023-04-06T01:45:44.719Z,101600.88
2023-04-06T01:48:12.478Z,101600.22
2023-04-06T01:50:40.235Z,101594.28
2023-04-06T01:53:07.961Z,101598.66
2023-04-06T01:55:35.632Z,101599.59
2023-04-06T01:58:04.797Z,101591.97
2023-04-06T02:00:32.594Z,101590.97
2023-04-06T02:03:00.462Z,101584.88
2023-04-06T02:05:28.397Z,101586.56
2023-04-06T02:07:56.042Z,101589.13
2023-04-06T02:10:23.960Z,101582.19
2023-04-06T02:12:51.752Z,101580.50
2023-04-06T02:15:20.838Z,101582.31
2023-04-06T02:17:48.705Z,101575.50
2023-04-06T02:20:16.498Z,101573.69
2023-04-06T02:22:44.202Z,101578.13
2023-04-06T02:25:12.820Z,101579.19
2023-04-06T02:27:40.517Z,101582.00
2023-04-06T02:30:09.404Z,101576.19
2023-04-06T02:32:38.535Z,101578.78
2023-04-06T02:35:07.069Z,101578.03
2023-04-06T02:37:34.776Z,101578.03
2023-04-06T02:40:02.404Z,101569.47
2023-04-06T02:42:30.453Z,101568.47
2023-04-06T02:44:58.128Z,101564.16
2023-04-06T02:47:25.935Z,101566.78
2023-04-06T02:49:54.991Z,101566.78
2023-04-06T02:52:22.680Z,101572.09
2023-04-06T02:54:51.969Z,101559.19
2023-04-06T02:57:19.638Z,101565.41
2023-04-06T02:59:47.452Z,101561.13
2023-04-06T03:02:15.239Z,101555.06
2023-04-06T03:04:44.212Z,101557.59
2023-04-06T03:07:13.315Z,101548.97
2023-04-06T03:09:41.133Z,101556.75
2023-04-06T03:12:10.066Z,101559.44
2023-04-06T03:14:38.006Z,101556.16
2023-04-06T03:17:05.872Z,101554.59
2023-04-06T03:19:33.726Z,101557.34
2023-04-06T03:22:01.450Z,101551.31
2023-04-06T03:24:30.586Z,101549.63
2023-04-06T03:26:58.485Z,101551.31
2023-04-06T03:29:26.387Z,101554.75
2023-04-06T03:31:54.074Z,101547.78
2023-04-06T03:34:21.991Z,101534.06
2023-04-06T03:36:56.618Z,101543.47
2023-04-06T03:39:36.198Z,101547.06
2023-04-06T03:42:03.906Z,101541.09
2023-04-06T03:44:31.556Z,101539.56
2023-04-06T03:46:59.292Z,101543.09
2023-04-06T03:49:27.038Z,101542.25
2023-04-06T03:51:54.928Z,101540.53
2023-04-06T03:54:22.571Z,101534.47
2023-04-06T03:56:51.640Z,101534.50
2023-04-06T03:59:19.403Z,101530.19
2023-04-06T04:01:47.170Z,101539.81
2023-04-06T04:04:14.949Z,101536.41
2023-04-06T04:06:42.619Z,101529.59
2023-04-06T04:09:10.546Z,101534.81
2023-04-06T04:11:38.545Z,101531.56
2023-04-06T04:14:07.623Z,101529.88
2023-04-06T04:16:35.593Z,101534.97
2023-04-06T04:19:03.332Z,101540.25
2023-04-06T04:21:32.298Z,101539.47
2023-04-06T04:24:00.046Z,101528.22
2023-04-06T04:26:27.786Z,101537.03
2023-04-06T04:28:55.478Z,101531.22
2023-04-06T04:31:24.704Z,101529.50
2023-04-06T04:33:52.483Z,101537.50
2023-04-06T04:36:20.222Z,101535.84
2023-04-06T04:38:47.937Z,101527.22
2023-04-06T04:41:15.558Z,101516.28
2023-04-06T04:43:43.251Z,101530.84
2023-04-06T04:46:11.015Z,101525.75
2023-04-06T04:48:40.859Z,101524.84
2023-04-06T04:51:08.564Z,101537.00
2023-04-06T04:53:36.267Z,101529.22
2023-04-06T04:56:04.006Z,101532.69
2023-04-06T04:58:31.727Z,101525.75
2023-04-06T05:00:59.396Z,101524.06
2023-04-06T05:03:28.227Z,101528.38
2023-04-06T05:05:57.369Z,101530.97
2023-04-06T05:08:25.000Z,101526.53
2023-04-06T05:10:52.750Z,101523.91
2023-04-06T05:13:20.595Z,101518.69
2023-04-06T05:15:48.346Z,101530.06
2023-04-06T05:18:16.177Z,101527.44
2023-04-06T05:20:44.706Z,101527.38
2023-04-06T05:23:13.825Z,101530.84
2023-04-06T05:25:41.720Z,101522.13
2023-04-06T05:28:09.453Z,101521.97
2023-04-06T05:30:37.476Z,101520.16
2023-04-06T05:33:05.297Z,101530.50
2023-04-06T05:35:32.989Z,101518.31
2023-04-06T05:38:01.254Z,101530.34
2023-04-06T05:40:30.600Z,101526.81
2023-04-06T05:42:58.539Z,101514.66
2023-04-06T05:45:26.189Z,101514.53
2023-04-06T05:47:53.943Z,101517.97
2023-04-06T05:50:21.941Z,101512.72
2023-04-06T05:52:49.719Z,101519.50
2023-04-06T05:55:17.513Z,101523.78
2023-04-06T05:57:46.570Z,101522.81
2023-04-06T06:00:15.535Z,101518.34
2023-04-06T06:02:43.355Z,101524.34
2023-04-06T06:05:11.612Z,101525.09
2023-04-06T06:07:39.410Z,101522.28
2023-04-06T06:10:08.096Z,101513.38
2023-04-06T06:12:35.718Z,101513.38
2023-04-06T06:15:05.295Z,101513.13
2023-04-06T06:17:33.075Z,101511.22
2023-04-06T06:20:00.910Z,101513.72
2023-04-06T06:22:28.526Z,101508.50
2023-04-06T06:24:56.418Z,101511.03
2023-04-06T06:27:24.150Z,101512.59
2023-04-06T06:29:51.903Z,101509.06
2023-04-06T06:32:21.047Z,101506.31
2023-04-06T06:34:48.733Z,101506.97
2023-04-06T06:37:16.350Z,101510.16
2023-04-06T06:39:44.116Z,101510.88
2023-04-06T06:42:14.128Z,101496.94
2023-04-06T06:44:42.455Z,101506.16
2023-04-06T06:47:10.275Z,101508.44
2023-04-06T06:49:39.325Z,101498.66
2023-04-06T06:52:06.937Z,101504.47
2023-04-06T06:54:34.645Z,101507.84
2023-04-06T06:57:02.332Z,101506.78
2023-04-06T06:59:30.024Z,101509.19
2023-04-06T07:01:57.684Z,101506.34
2023-04-06T07:04:25.350Z,101496.44
2023-04-06T07:06:54.518Z,101504.94
2023-04-06T07:09:22.292Z,101503.81
2023-04-06T07:11:50.224Z,101495.44
2023-04-06T07:14:18.001Z,101503.03
2023-04-06T07:16:47.875Z,101493.09
2023-04-06T07:19:15.542Z,101496.13
2023-04-06T07:21:43.189Z,101487.88
2023-04-06T07:24:12.258Z,101482.97
2023-04-06T07:26:39.978Z,101490.44
2023-04-06T07:29:07.900Z,101484.81
2023-04-06T07:31:36.541Z,101476.56
2023-04-06T07:34:04.279Z,101490.84
2023-04-06T07:36:32.120Z,101497.50
2023-04-06T07:38:59.723Z,101498.13
2023-04-06T07:41:28.846Z,101496.88
2023-04-06T07:43:56.571Z,101485.47
2023-04-06T07:46:24.419Z,101493.69
2023-04-06T07:48:52.402Z,101493.97
2023-04-06T07:51:20.185Z,101477.69
2023-04-06T07:53:47.949Z,101479.06
2023-04-06T07:56:16.365Z,101483.91
2023-04-06T07:58:45.875Z,101483.13
2023-04-06T08:01:13.574Z,101482.47
2023-04-06T08:03:41.761Z,101485.38
2023-04-06T08:06:09.498Z,101484.25
2023-04-06T08:08:37.276Z,101484.88
2023-04-06T08:11:04.957Z,101478.41
2023-04-06T08:13:32.604Z,101482.28
2023-04-06T08:16:02.141Z,101479.13
2023-04-06T08:18:30.877Z,101466.38
2023-04-06T08:20:58.921Z,101477.56
2023-04-06T08:23:26.615Z,101472.41
2023-04-06T08:25:55.168Z,101468.88
2023-04-06T08:28:23.039Z,101462.81
2023-04-06T08:30:50.845Z,101465.47
2023-04-06T08:33:19.877Z,101458.59
2023-04-06T08:35:47.554Z,101459.91
2023-04-06T08:38:15.361Z,101460.69
2023-04-06T08:40:45.206Z,101451.00
2023-04-06T08:43:15.928Z,101457.03
2023-04-06T08:45:44.816Z,101456.81
2023-04-06T08:49:41.598Z,101451.19
2023-04-06T08:52:10.222Z,101450.13
2023-04-06T08:54:37.852Z,101451.06
2023-04-06T08:57:05.876Z,101445.22
2023-04-06T08:59:34.015Z,101448.63
2023-04-06T09:02:05.952Z,101452.75
2023-04-06T09:04:34.232Z,101448.88
2023-04-06T09:07:03.566Z,101445.50
2023-04-06T09:09:31.334Z,101449.00
2023-04-06T09:12:04.472Z,101446.34
2023-04-06T09:14:36.813Z,101445.19
2023-04-06T09:17:04.542Z,101448.50
2023-04-06T09:19:32.218Z,101441.78
2023-04-06T09:22:08.485Z,101450.94
2023-04-06T09:24:43.923Z,101443.59
2023-04-06T09:27:11.647Z,101438.00
2023-04-06T09:29:39.356Z,101437.72
2023-04-06T09:32:08.289Z,101435.81
2023-04-06T09:34:36.253Z,101436.25
2023-04-06T09:37:16.114Z,101419.47
2023-04-06T09:39:44.130Z,101429.97
2023-04-06T09:42:12.153Z,101427.66
2023-04-06T09:44:39.859Z,101432.53
2023-04-06T09:47:09.538Z,101430.44
2023-04-06T09:49:37.389Z,101421.16
2023-04-06T09:52:06.327Z,101430.34
2023-04-06T09:54:37.129Z,101432.56
2023-04-06T09:57:12.606Z,101420.66
2023-04-06T09:59:46.729Z,101416.53
2023-04-06T10:02:20.641Z,101403.97
2023-04-06T10:04:52.397Z,101419.28
2023-04-06T10:07:20.712Z,101411.78
2023-04-06T10:09:50.010Z,101414.63
2023-04-06T10:12:18.383Z,101412.91
2023-04-06T10:14:46.176Z,101400.66
2023-04-06T10:17:13.770Z,101398.50
2023-04-06T10:19:46.896Z,101398.59
2023-04-06T10:22:17.830Z,101393.59
2023-04-06T10:24:45.614Z,101393.03
2023-04-06T10:27:14.751Z,101390.78
2023-04-06T10:29:47.539Z,101394.56
2023-04-06T10:32:15.333Z,101394.94
2023-04-06T10:34:43.008Z,101397.03
2023-04-06T10:37:15.526Z,101392.94
2023-04-06T10:39:50.140Z,101391.88
2023-04-06T10:42:19.259Z,101384.34
2023-04-06T10:44:47.460Z,101382.09
2023-04-06T10:47:19.420Z,101386.09
2023-04-06T10:49:47.080Z,101383.69
2023-04-06T10:52:14.876Z,101374.69
2023-04-06T10:54:44.946Z,101386.06
2023-04-06T10:57:12.665Z,101383.88
2023-04-06T10:59:46.246Z,101381.72
2023-04-06T11:02:22.751Z,101371.97
2023-04-06T11:04:58.200Z,101366.78
2023-04-06T11:07:26.712Z,101372.78
2023-04-06T11:10:12.585Z,101365.81
2023-04-06T11:12:42.276Z,101365.56
2023-04-06T11:15:12.320Z,101360.03
2023-04-06T11:17:40.154Z,101361.38
2023-04-06T11:20:12.285Z,101365.22
2023-04-06T11:22:50.718Z,101361.97
2023-04-06T11:25:18.591Z,101368.41
2023-04-06T11:27:47.155Z,101364.22
2023-04-06T11:30:16.706Z,101368.94
2023-04-06T11:32:46.079Z,101362.06
2023-04-06T11:35:16.408Z,101367.47
2023-04-06T11:37:45.294Z,101356.16
2023-04-06T11:40:13.127Z,101345.69
2023-04-06T11:42:40.963Z,101354.72
2023-04-06T11:45:10.112Z,101355.28
2023-04-06T11:47:39.514Z,101352.28
2023-04-06T11:50:08.453Z,101352.88
2023-04-06T11:52:36.103Z,101354.44
2023-04-06T11:55:13.489Z,101350.81
2023-04-06T11:57:42.279Z,101341.19
2023-04-06T12:00:11.431Z,101349.38
2023-04-06T12:02:40.930Z,101350.34
2023-04-06T12:05:09.530Z,101352.72
2023-04-06T12:07:37.355Z,101348.41
2023-04-06T12:10:05.991Z,101348.75
2023-04-06T12:12:33.785Z,101352.03
2023-04-06T12:15:01.936Z,101342.44
2023-04-06T12:17:29.632Z,101341.94
2023-04-06T12:20:05.390Z,101345.78
2023-04-06T12:22:33.662Z,101349.66
2023-04-06T12:25:01.324Z,101348.13
2023-04-06T12:27:28.999Z,101344.97
2023-04-06T12:29:56.639Z,101349.66
2023-04-06T12:32:24.357Z,101345.44
2023-04-06T12:34:54.037Z,101343.66
2023-04-06T12:37:23.160Z,101344.34
2023-04-06T12:39:51.124Z,101347.75
2023-04-06T12:42:18.739Z,101347.00
2023-04-06T12:44:48.056Z,101355.22
2023-04-06T12:47:15.854Z,101343.41
2023-04-06T12:49:43.925Z,101354.97
2023-04-06T12:52:12.788Z,101356.16
2023-04-06T12:56:25.494Z,101361.44
2023-04-06T12:58:54.007Z,101355.56
2023-04-06T13:01:22.267Z,101361.56
2023-04-06T13:03:50.009Z,101354.69
2023-04-06T13:06:17.768Z,101354.94
2023-04-06T13:08:45.462Z,101353.97
2023-04-06T13:11:13.416Z,101352.75
2023-04-06T13:13:42.523Z,101352.13
2023-04-06T13:16:10.778Z,101356.38
2023-04-06T13:18:39.824Z,101349.66
2023-04-06T13:21:08.121Z,101363.34
2023-04-06T13:23:36.267Z,101345.56
2023-04-06T13:26:05.412Z,101348.66
2023-04-06T13:28:33.848Z,101341.69
2023-04-06T13:31:04.186Z,101351.19
2023-04-06T13:33:32.485Z,101345.91
2023-04-06T13:36:00.780Z,101347.69
2023-04-06T13:38:28.664Z,101354.22
2023-04-06T13:40:56.971Z,101343.50
2023-04-06T13:43:27.108Z,101354.09
2023-04-06T13:45:56.464Z,101344.81
2023-04-06T13:48:26.556Z,101344.56
2023-04-06T13:50:54.412Z,101347.97
2023-04-06T13:53:22.160Z,101350.81
2023-04-06T13:55:55.413Z,101341.91
2023-04-06T13:58:23.175Z,101346.19
2023-04-06T14:00:50.920Z,101339.72
2023-04-06T14:03:18.837Z,101350.31
2023-04-06T14:05:48.157Z,101341.25
2023-04-06T14:08:15.972Z,101342.19
2023-04-06T14:10:43.849Z,101343.53
2023-04-06T14:13:11.557Z,101337.50
2023-04-06T14:15:39.673Z,101340.75
2023-04-06T14:18:07.633Z,101347.09
2023-04-06T14:20:35.365Z,101350.13
2023-04-06T14:23:04.771Z,101353.59
2023-04-06T14:25:33.547Z,101346.13
2023-04-06T14:28:02.115Z,101349.22
2023-04-06T14:30:29.919Z,101355.19
2023-04-06T14:32:58.891Z,101345.31
2023-04-06T14:35:29.089Z,101350.09
2023-04-06T14:37:57.859Z,101350.53
2023-04-06T14:40:27.054Z,101356.06
2023-04-06T14:42:56.562Z,101356.50
2023-04-06T14:45:24.254Z,101346.34
2023-04-06T14:47:52.132Z,101355.78
2023-04-06T14:50:20.018Z,101364.25
2023-04-06T14:52:47.887Z,101366.00
2023-04-06T14:55:16.939Z,101364.09
2023-04-06T14:57:46.148Z,101360.97
2023-04-06T15:00:15.054Z,101366.44
2023-04-06T15:02:44.265Z,101370.38
2023-04-06T15:05:12.260Z,101365.28
2023-04-06T15:07:39.929Z,101362.56
2023-04-06T15:10:10.845Z,101363.09
2023-04-06T15:12:40.273Z,101360.97
2023-04-06T15:15:10.681Z,101360.22
2023-04-06T15:17:38.545Z,101347.75
2023-04-06T15:20:07.609Z,101350.41
2023-04-06T15:22:35.400Z,101360.56
2023-04-06T15:25:03.075Z,101352.31
2023-04-06T15:27:31.083Z,101353.38
2023-04-06T15:29:59.428Z,101344.91
2023-04-06T15:32:28.688Z,101353.06
2023-04-06T15:34:58.248Z,101338.78
2023-04-06T15:37:25.930Z,101343.03
2023-04-06T15:39:53.603Z,101337.13
2023-04-06T15:42:21.217Z,101343.22
2023-04-06T15:44:48.923Z,101336.69
2023-04-06T15:47:16.977Z,101335.22
2023-04-06T15:49:46.121Z,101334.91
2023-04-06T15:52:13.733Z,101339.00
2023-04-06T15:54:42.028Z,101341.75
2023-04-06T15:57:09.693Z,101337.22
2023-04-06T15:59:37.465Z,101344.28
2023-04-06T16:02:05.775Z,101341.56
2023-04-06T16:04:33.884Z,101342.19
2023-04-06T16:07:03.150Z,101341.22
2023-04-06T16:09:30.915Z,101340.09
2023-04-06T16:11:58.576Z,101347.78
2023-04-06T16:14:26.221Z,101345.25
2023-04-06T16:16:54.949Z,101346.81
2023-04-06T16:19:22.632Z,101348.84
2023-04-06T16:21:50.288Z,101342.72
2023-04-06T16:24:19.351Z,101349.56
2023-04-06T16:26:48.300Z,101349.47
2023-04-06T16:29:17.251Z,101340.59
2023-04-06T16:31:47.237Z,101341.53
2023-04-06T16:34:15.547Z,101348.44
2023-04-06T16:36:43.266Z,101332.91
2023-04-06T16:39:11.409Z,101335.53
2023-04-06T16:41:40.796Z,101328.47
2023-04-06T16:44:09.144Z,101337.94
2023-04-06T16:46:38.307Z,101329.53
2023-04-06T16:49:06.865Z,101332.78
2023-04-06T16:51:34.562Z,101335.44
2023-04-06T16:54:02.914Z,101334.03
2023-04-06T16:56:30.841Z,101333.13
2023-04-06T16:58:59.998Z,101321.69
2023-04-06T17:01:28.777Z,101321.81
2023-04-06T17:03:57.347Z,101319.38
2023-04-06T17:06:27.098Z,101320.47
2023-04-06T17:08:54.920Z,101311.34
2023-04-06T17:11:28.029Z,101313.56
2023-04-06T17:14:01.825Z,101312.63
2023-04-06T17:16:29.726Z,101308.28
2023-04-06T17:18:57.787Z,101316.00
2023-04-06T17:21:26.359Z,101309.03
2023-04-06T17:23:54.141Z,101314.53
2023-04-06T17:26:22.649Z,101310.31
2023-04-06T17:28:50.336Z,101309.66
2023-04-06T17:31:19.494Z,101310.06
2023-04-06T17:33:47.564Z,101303.94
2023-04-06T17:36:15.568Z,101307.44
2023-04-06T17:38:45.718Z,101301.66
2023-04-06T17:41:14.190Z,101296.78
2023-04-06T17:43:42.122Z,101301.72
2023-04-06T17:46:10.012Z,101305.44
2023-04-06T17:48:39.150Z,101295.28
2023-04-06T17:51:07.061Z,101294.84
2023-04-06T17:53:36.619Z,101298.75
2023-04-06T17:56:04.582Z,101304.13
2023-04-06T17:58:32.329Z,101296.47
2023-04-06T18:01:00.098Z,101303.34
2023-04-06T18:03:28.214Z,101290.16
2023-04-06T18:05:57.712Z,101295.44
2023-04-06T18:08:25.444Z,101292.25
2023-04-06T18:10:53.119Z,101306.28
2023-04-06T18:13:21.251Z,101296.78
2023-04-06T18:15:48.950Z,101300.50
2023-04-06T18:18:17.063Z,101289.38
2023-04-06T18:20:44.766Z,101299.81
2023-04-06T18:23:14.038Z,101302.69
2023-04-06T18:25:41.883Z,101299.19
2023-04-06T18:28:10.686Z,101306.28
2023-04-06T18:30:38.484Z,101301.28
2023-04-06T18:33:07.576Z,101303.56
2023-04-06T18:35:35.380Z,101303.75
2023-04-06T18:38:03.039Z,101305.47
2023-04-06T18:40:39.844Z,101308.19
2023-04-06T18:43:09.200Z,101307.56
2023-04-06T18:45:38.740Z,101307.44
2023-04-06T18:48:07.342Z,101305.88
2023-04-06T18:50:35.359Z,101314.50
2023-04-06T18:53:03.274Z,101310.94
2023-04-06T18:55:33.698Z,101306.16
2023-04-06T18:58:02.918Z,101306.38
2023-04-06T19:00:30.675Z,101300.16
2023-04-06T19:02:58.549Z,101299.31
2023-04-06T19:05:26.607Z,101303.41
2023-04-06T19:07:54.340Z,101287.47
2023-04-06T19:10:22.107Z,101307.84
2023-04-06T19:12:49.791Z,101305.63
2023-04-06T19:15:18.988Z,101302.69
2023-04-06T19:17:47.830Z,101299.94
2023-04-06T19:20:15.818Z,101301.28
2023-04-06T19:22:44.733Z,101306.53
2023-04-06T19:25:12.694Z,101305.63
2023-04-06T19:27:40.447Z,101300.34
2023-04-06T19:30:09.792Z,101300.34
2023-04-06T19:32:39.722Z,101295.25
2023-04-06T19:35:08.418Z,101296.94
2023-04-06T19:37:36.663Z,101293.59
2023-04-06T19:40:07.566Z,101290.50
2023-04-06T19:42:35.251Z,101287.13
2023-04-06T19:45:02.988Z,101289.09
2023-04-06T19:47:30.816Z,101275.38
2023-04-06T19:49:59.932Z,101277.06
2023-04-06T19:52:28.943Z,101278.75
2023-04-06T19:54:57.179Z,101277.25
2023-04-06T19:57:25.831Z,101278.41
2023-04-06T19:59:54.806Z,101284.22
2023-04-06T20:02:22.977Z,101282.34
2023-04-06T20:04:50.837Z,101282.34
2023-04-06T20:07:19.942Z,101281.78
2023-04-06T20:09:47.691Z,101282.53
2023-04-06T20:12:15.495Z,101281.78
2023-04-06T20:14:43.179Z,101276.91
2023-04-06T20:17:10.919Z,101283.28
2023-04-06T20:19:38.565Z,101273.38
2023-04-06T20:22:06.283Z,101278.56
2023-04-06T20:24:35.395Z,101281.28
2023-04-06T20:27:03.157Z,101284.22
2023-04-06T20:29:30.846Z,101278.50
2023-04-06T20:31:59.305Z,101275.56
2023-04-06T20:34:28.861Z,101274.63
2023-04-06T20:36:56.715Z,101277.91
2023-04-06T20:39:24.540Z,101269.28
2023-04-06T20:41:54.016Z,101266.72
2023-04-06T20:44:21.947Z,101268.63
2023-04-06T20:46:50.037Z,101258.91
2023-04-06T20:49:18.392Z,101259.97
2023-04-06T20:51:46.289Z,101262.59
2023-04-06T20:54:13.901Z,101257.72
2023-04-06T20:56:41.603Z,101258.66
2023-04-06T20:59:10.913Z,101251.72
2023-04-06T21:01:38.666Z,101253.19
2023-04-06T21:04:06.458Z,101245.78
2023-04-06T21:06:34.291Z,101247.69
2023-04-06T21:09:02.399Z,101246.94
2023-04-06T21:11:30.164Z,101245.34
2023-04-06T21:13:57.921Z,101240.72
2023-04-06T21:16:28.002Z,101244.09
2023-04-06T21:18:55.822Z,101242.25
2023-04-06T21:21:23.456Z,101247.50
2023-04-06T21:23:52.803Z,101249.19
2023-04-06T21:26:20.584Z,101247.19
2023-04-06T21:28:48.274Z,101245.28
2023-04-06T21:31:16.788Z,101240.53
2023-04-06T21:33:45.950Z,101244.94
2023-04-06T21:36:13.737Z,101240.63
2023-04-06T21:38:41.428Z,101234.25
2023-04-06T21:41:09.087Z,101225.56
2023-04-06T21:43:36.718Z,101229.72
2023-04-06T21:46:04.888Z,101233.91
2023-04-06T21:48:32.761Z,101227.63
2023-04-06T21:51:01.824Z,101225.84
2023-04-06T21:53:29.488Z,101219.91
2023-04-06T21:55:57.400Z,101231.28
2023-04-06T21:58:25.107Z,101226.03
2023-04-06T22:00:52.776Z,101224.34
2023-04-06T22:03:20.671Z,101217.38
2023-04-06T22:05:48.507Z,101231.09
2023-04-06T22:08:25.507Z,101223.72
2023-04-06T22:11:01.316Z,101223.56
2023-04-06T22:13:29.457Z,101223.66
2023-04-06T22:15:57.158Z,101219.53
2023-04-06T22:18:24.824Z,101219.31
2023-04-06T22:20:52.467Z,101217.63
2023-04-06T22:23:21.860Z,101218.56
2023-04-06T22:25:49.917Z,101219.53
2023-04-06T22:28:17.656Z,101220.38
2023-04-06T22:30:45.404Z,101214.03
2023-04-06T22:33:13.041Z,101222.91
2023-04-06T22:35:40.972Z,101208.25
2023-04-06T22:38:08.687Z,101217.72
2023-04-06T22:40:37.798Z,101218.06
2023-04-06T22:43:05.441Z,101215.81
2023-04-06T22:45:33.079Z,101221.06
2023-04-06T22:48:00.941Z,101223.50
2023-04-06T22:50:28.630Z,101215.31
2023-04-06T22:52:56.542Z,101218.91
2023-04-06T22:55:24.300Z,101226.69
2023-04-06T22:57:53.553Z,101218.56
2023-04-06T23:00:21.479Z,101221.22
2023-04-06T23:02:49.222Z,101218.69
2023-04-06T23:05:17.117Z,101212.78
2023-04-06T23:07:44.760Z,101214.25
2023-04-06T23:10:12.441Z,101217.63
2023-04-06T23:12:40.059Z,101217.44
2023-04-06T23:15:10.505Z,101218.19
2023-04-06T23:17:38.219Z,101222.91
2023-04-06T23:20:07.160Z,101215.00
2023-04-06T23:22:34.808Z,101209.19
2023-04-06T23:25:02.488Z,101217.63
2023-04-06T23:27:30.119Z,101214.91
2023-04-06T23:29:57.785Z,101220.81
2023-04-06T23:32:26.934Z,101215.34
2023-04-06T23:34:54.598Z,101231.91
2023-04-06T23:37:22.200Z,101228.44
2023-04-06T23:39:49.901Z,101229.28
2023-04-06T23:42:17.869Z,101218.75
2023-04-06T23:44:45.636Z,101223.25
2023-04-06T23:47:13.330Z,101217.44
2023-04-06T23:49:42.350Z,101221.41
2023-04-06T23:52:10.058Z,101226.69
2023-04-06T23:54:37.778Z,101227.44
2023-04-06T23:57:05.445Z,101227.97
2023-04-06T23:59:33.086Z,101225.88
